createdAt,value
2019-04-30T00:00:53.028Z,90.97
2019-04-30T00:01:55.888Z,91.21
2019-04-30T00:02:55.185Z,90.90
2019-04-30T00:03:55.778Z,91.47
2019-04-30T00:04:55.401Z,91.30
2019-04-30T00:05:57.467Z,91.28
2019-04-30T00:06:55.975Z,91.36
2019-04-30T00:07:58.502Z,91.55
2019-04-30T00:08:57.715Z,91.51
2019-04-30T00:09:57.726Z,92.06
2019-04-30T00:10:57.867Z,92.25
2019-04-30T00:12:01.245Z,91.94
2019-04-30T00:12:59.038Z,91.68
2019-04-30T00:14:00.380Z,91.66
2019-04-30T00:15:00.763Z,91.53
2019-04-30T00:16:01.712Z,91.38
2019-04-30T00:17:00.702Z,91.42
2019-04-30T00:18:02.147Z,91.57
2019-04-30T00:19:02.624Z,91.61
2019-04-30T00:20:03.069Z,91.69
2019-04-30T00:21:05.263Z,91.87
2019-04-30T00:22:02.881Z,92.14
2019-04-30T00:23:05.147Z,92.68
2019-04-30T00:24:06.229Z,92.50
2019-04-30T00:25:05.351Z,91.54
2019-04-30T00:26:10.147Z,91.93
2019-04-30T00:27:05.513Z,91.60
2019-04-30T00:28:08.684Z,91.44
2019-04-30T00:29:06.308Z,91.67
2019-04-30T00:30:09.137Z,91.84
2019-04-30T00:30:16.250Z,92.05
2019-04-30T00:31:23.763Z,92.09
2019-04-30T00:32:17.181Z,92.84
2019-04-30T00:33:22.032Z,92.70
2019-04-30T00:34:17.959Z,92.51
2019-04-30T00:35:19.770Z,92.71
2019-04-30T00:36:18.766Z,92.83
2019-04-30T00:37:20.208Z,93.15
2019-04-30T00:38:20.728Z,92.96
2019-04-30T00:39:21.133Z,92.90
2019-04-30T00:40:25.700Z,92.80
2019-04-30T00:41:21.207Z,92.96
2019-04-30T00:42:24.152Z,92.71
2019-04-30T00:43:22.558Z,92.68
2019-04-30T00:44:28.222Z,92.46
2019-04-30T00:45:25.178Z,92.56
2019-04-30T00:46:27.275Z,92.69
2019-04-30T00:47:25.683Z,92.72
2019-04-30T00:48:29.686Z,92.74
2019-04-30T00:49:26.663Z,92.81
2019-04-30T00:50:29.050Z,93.09
2019-04-30T00:51:26.338Z,93.08
2019-04-30T00:52:29.583Z,93.34
2019-04-30T00:53:27.042Z,93.32
2019-04-30T00:54:30.846Z,93.38
2019-04-30T00:55:27.903Z,92.96
2019-04-30T00:56:29.537Z,93.14
2019-04-30T00:57:29.996Z,93.10
2019-04-30T00:58:30.501Z,93.03
2019-04-30T00:59:29.877Z,93.09
2019-04-30T01:00:31.405Z,93.29
2019-04-30T01:01:31.955Z,93.06
2019-04-30T01:02:32.614Z,92.95
2019-04-30T01:03:34.946Z,93.18
2019-04-30T01:04:32.463Z,93.33
2019-04-30T01:05:35.358Z,93.12
2019-04-30T01:06:34.978Z,93.12
2019-04-30T01:07:35.397Z,93.09
2019-04-30T01:08:35.815Z,92.83
2019-04-30T01:09:35.389Z,92.38
2019-04-30T01:10:35.488Z,92.53
2019-04-30T01:11:39.853Z,92.68
2019-04-30T01:12:43.897Z,92.60
2019-04-30T01:13:38.905Z,92.81
2019-04-30T01:14:38.640Z,92.73
2019-04-30T01:15:39.080Z,93.42
2019-04-30T01:16:39.521Z,93.00
2019-04-30T01:17:40.847Z,93.16
2019-04-30T01:18:39.957Z,93.10
2019-04-30T01:19:41.438Z,93.21
2019-04-30T01:20:41.947Z,93.23
2019-04-30T01:21:46.932Z,92.99
2019-04-30T01:22:42.297Z,92.59
2019-04-30T01:23:51.724Z,92.30
2019-04-30T01:24:43.255Z,91.90
2019-04-30T01:25:49.907Z,91.79
2019-04-30T01:26:44.590Z,92.24
2019-04-30T01:27:46.753Z,92.57
2019-04-30T01:28:45.432Z,92.67
2019-04-30T01:29:48.633Z,92.08
2019-04-30T01:30:46.343Z,92.26
2019-04-30T01:31:48.869Z,92.66
2019-04-30T01:32:50.255Z,92.33
2019-04-30T01:33:48.940Z,92.11
2019-04-30T01:34:49.858Z,92.05
2019-04-30T01:35:48.891Z,92.11
2019-04-30T01:36:52.198Z,91.82
2019-04-30T01:37:49.338Z,92.10
2019-04-30T01:38:52.439Z,92.03
2019-04-30T01:39:50.353Z,91.96
2019-04-30T01:40:51.816Z,92.13
2019-04-30T01:41:52.408Z,92.02
2019-04-30T01:42:52.806Z,92.12
2019-04-30T01:43:53.303Z,92.35
2019-04-30T01:44:54.177Z,92.17
2019-04-30T01:45:02.710Z,91.91
2019-04-30T01:46:09.370Z,91.93
2019-04-30T01:47:03.505Z,91.89
2019-04-30T01:48:09.270Z,91.99
2019-04-30T01:49:04.872Z,91.99
2019-04-30T01:50:06.496Z,91.70
2019-04-30T01:51:08.856Z,91.82
2019-04-30T01:52:06.429Z,92.04
2019-04-30T01:53:11.435Z,92.13
2019-04-30T01:54:09.246Z,92.40
2019-04-30T01:55:08.549Z,92.18
2019-04-30T01:56:09.184Z,92.07
2019-04-30T01:57:10.835Z,92.37
2019-04-30T01:58:09.714Z,92.24
2019-04-30T01:59:11.129Z,92.34
2019-04-30T02:00:11.651Z,92.22
2019-04-30T02:01:12.163Z,92.04
2019-04-30T02:02:12.655Z,92.10
2019-04-30T02:03:13.040Z,92.08
2019-04-30T02:04:13.485Z,91.89
2019-04-30T02:05:13.860Z,92.01
2019-04-30T02:06:14.315Z,92.20
2019-04-30T02:07:14.751Z,92.47
2019-04-30T02:08:15.351Z,92.44
2019-04-30T02:09:16.047Z,92.58
2019-04-30T02:10:18.481Z,92.34
2019-04-30T02:11:15.880Z,92.32
2019-04-30T02:12:19.711Z,92.31
2019-04-30T02:13:18.896Z,92.28
2019-04-30T02:14:18.970Z,92.05
2019-04-30T02:15:19.198Z,92.07
2019-04-30T02:16:20.991Z,91.53
2019-04-30T02:17:19.353Z,91.42
2019-04-30T02:18:19.677Z,91.71
2019-04-30T02:19:21.161Z,91.84
2019-04-30T02:20:21.652Z,91.52
2019-04-30T02:21:22.015Z,91.58
2019-04-30T02:22:22.461Z,91.51
2019-04-30T02:23:22.849Z,91.37
2019-04-30T02:24:23.230Z,91.62
2019-04-30T02:25:23.598Z,92.14
2019-04-30T02:26:23.998Z,92.55
2019-04-30T02:27:24.376Z,92.25
2019-04-30T02:28:25.260Z,92.06
2019-04-30T02:29:24.703Z,92.13
2019-04-30T02:30:26.337Z,92.12
2019-04-30T02:31:26.756Z,91.93
2019-04-30T02:32:30.195Z,92.45
2019-04-30T02:33:27.113Z,92.17
2019-04-30T02:34:30.308Z,92.01
2019-04-30T02:35:28.852Z,91.66
2019-04-30T02:36:29.919Z,91.52
2019-04-30T02:37:30.130Z,91.61
2019-04-30T02:38:30.248Z,91.77
2019-04-30T02:39:30.387Z,92.03
2019-04-30T02:40:31.834Z,92.28
2019-04-30T02:41:32.258Z,92.08
2019-04-30T02:42:32.686Z,91.79
2019-04-30T02:43:33.235Z,92.16
2019-04-30T02:44:33.710Z,92.06
2019-04-30T02:45:34.127Z,92.49
2019-04-30T02:45:42.672Z,92.19
2019-04-30T02:46:44.018Z,92.14
2019-04-30T02:47:44.638Z,92.54
2019-04-30T02:48:45.643Z,92.48
2019-04-30T02:49:46.035Z,92.28
2019-04-30T02:50:49.006Z,92.98
2019-04-30T02:51:45.931Z,92.98
2019-04-30T02:52:50.462Z,92.76
2019-04-30T02:53:47.174Z,93.17
2019-04-30T02:54:49.956Z,93.72
2019-04-30T02:55:49.942Z,93.75
2019-04-30T02:56:50.689Z,93.75
2019-04-30T02:57:49.912Z,93.24
2019-04-30T02:58:50.612Z,93.62
2019-04-30T02:59:50.365Z,93.42
2019-04-30T03:00:51.785Z,92.88
2019-04-30T03:01:52.218Z,92.24
2019-04-30T03:02:52.747Z,92.33
2019-04-30T03:03:53.168Z,92.27
2019-04-30T03:04:53.665Z,92.10
2019-04-30T03:05:54.163Z,91.84
2019-04-30T03:06:54.517Z,92.04
2019-04-30T03:07:54.934Z,92.35
2019-04-30T03:08:55.431Z,92.12
2019-04-30T03:09:56.050Z,92.13
2019-04-30T03:10:56.465Z,92.19
2019-04-30T03:11:59.944Z,91.88
2019-04-30T03:12:56.354Z,91.96
2019-04-30T03:13:59.290Z,91.86
2019-04-30T03:15:00.261Z,91.99
2019-04-30T03:15:59.345Z,92.08
2019-04-30T03:17:00.098Z,92.19
2019-04-30T03:18:00.641Z,91.92
2019-04-30T03:19:00.148Z,91.71
2019-04-30T03:20:03.549Z,91.72
2019-04-30T03:21:01.248Z,91.80
2019-04-30T03:22:02.498Z,91.69
2019-04-30T03:23:02.916Z,91.51
2019-04-30T03:24:03.593Z,91.43
2019-04-30T03:25:04.044Z,91.29
2019-04-30T03:26:04.445Z,91.24
2019-04-30T03:27:04.926Z,91.12
2019-04-30T03:28:05.473Z,90.99
2019-04-30T03:29:06.133Z,91.10
2019-04-30T03:30:06.676Z,90.59
2019-04-30T03:31:07.103Z,91.03
2019-04-30T03:32:12.397Z,91.12
2019-04-30T03:33:07.156Z,91.27
2019-04-30T03:34:17.101Z,91.17
2019-04-30T03:35:12.514Z,91.43
2019-04-30T03:36:12.391Z,91.24
2019-04-30T03:37:10.111Z,91.10
2019-04-30T03:38:10.285Z,91.14
2019-04-30T03:39:11.902Z,91.29
2019-04-30T03:40:13.120Z,91.50
2019-04-30T03:41:12.061Z,91.63
2019-04-30T03:42:13.625Z,91.93
2019-04-30T03:43:13.966Z,91.57
2019-04-30T03:44:21.760Z,92.05
2019-04-30T03:45:13.914Z,91.90
2019-04-30T03:46:15.790Z,91.94
2019-04-30T03:47:16.216Z,92.01
2019-04-30T03:47:24.758Z,92.18
2019-04-30T03:48:26.075Z,92.17
2019-04-30T03:49:26.564Z,92.20
2019-04-30T03:50:31.521Z,92.44
2019-04-30T03:51:26.539Z,92.70
2019-04-30T03:52:29.196Z,93.06
2019-04-30T03:53:29.682Z,92.82
2019-04-30T03:54:29.285Z,92.94
2019-04-30T03:55:29.938Z,92.85
2019-04-30T03:56:29.867Z,92.79
2019-04-30T03:57:30.278Z,93.33
2019-04-30T03:58:29.912Z,93.08
2019-04-30T03:59:31.304Z,93.57
2019-04-30T04:00:31.715Z,93.60
2019-04-30T04:01:32.241Z,93.76
2019-04-30T04:02:32.712Z,93.94
2019-04-30T04:03:33.167Z,94.21
2019-04-30T04:04:33.689Z,93.84
2019-04-30T04:05:34.193Z,93.87
2019-04-30T04:06:34.897Z,93.80
2019-04-30T04:07:35.432Z,93.58
2019-04-30T04:08:35.893Z,93.88
2019-04-30T04:09:36.628Z,93.77
2019-04-30T04:10:37.529Z,93.59
2019-04-30T04:11:39.625Z,93.77
2019-04-30T04:12:39.544Z,93.92
2019-04-30T04:13:40.057Z,94.04
2019-04-30T04:14:39.424Z,93.82
2019-04-30T04:15:39.906Z,93.88
2019-04-30T04:16:41.197Z,94.11
2019-04-30T04:17:40.338Z,94.09
2019-04-30T04:18:41.772Z,94.09
2019-04-30T04:19:42.142Z,94.23
2019-04-30T04:20:42.951Z,94.37
2019-04-30T04:21:42.242Z,94.32
2019-04-30T04:22:42.645Z,94.62
2019-04-30T04:23:44.209Z,94.72
2019-04-30T04:24:44.737Z,94.46
2019-04-30T04:25:45.455Z,94.77
2019-04-30T04:26:46.041Z,94.74
2019-04-30T04:27:46.496Z,94.98
2019-04-30T04:28:49.396Z,95.35
2019-04-30T04:29:46.321Z,95.42
2019-04-30T04:30:50.531Z,95.24
2019-04-30T04:31:50.148Z,95.25
2019-04-30T04:32:50.158Z,94.48
2019-04-30T04:33:52.293Z,94.19
2019-04-30T04:34:50.514Z,93.91
2019-04-30T04:35:49.889Z,93.96
2019-04-30T04:36:50.715Z,94.07
2019-04-30T04:37:50.395Z,93.91
2019-04-30T04:38:51.810Z,94.03
2019-04-30T04:39:52.247Z,93.70
2019-04-30T04:40:52.904Z,93.49
2019-04-30T04:41:53.604Z,93.49
2019-04-30T04:42:54.099Z,93.33
2019-04-30T04:43:54.490Z,93.13
2019-04-30T04:44:54.966Z,93.32
2019-04-30T04:45:55.465Z,93.37
2019-04-30T04:46:56.068Z,93.57
2019-04-30T04:47:56.503Z,93.86
2019-04-30T04:48:59.391Z,93.82
2019-04-30T04:49:56.440Z,93.87
2019-04-30T04:50:05.960Z,94.08
2019-04-30T04:51:10.865Z,94.06
2019-04-30T04:52:06.654Z,94.17
2019-04-30T04:53:11.286Z,93.98
2019-04-30T04:54:10.175Z,93.68
2019-04-30T04:55:09.998Z,93.72
2019-04-30T04:56:10.069Z,93.95
2019-04-30T04:57:16.966Z,94.08
2019-04-30T04:58:12.732Z,93.88
2019-04-30T04:59:10.478Z,93.84
2019-04-30T05:00:11.033Z,93.99
2019-04-30T05:01:13.781Z,93.33
2019-04-30T05:02:13.153Z,93.66
2019-04-30T05:03:13.650Z,93.02
2019-04-30T05:04:14.297Z,93.19
2019-04-30T05:05:14.699Z,93.44
2019-04-30T05:06:15.675Z,93.60
2019-04-30T05:07:16.093Z,93.49
2019-04-30T05:08:18.479Z,92.74
2019-04-30T05:09:16.011Z,92.83
2019-04-30T05:10:19.233Z,92.75
2019-04-30T05:11:16.982Z,92.84
2019-04-30T05:12:18.583Z,92.70
2019-04-30T05:13:19.237Z,92.24
2019-04-30T05:14:19.108Z,92.13
2019-04-30T05:15:19.563Z,91.83
2019-04-30T05:16:19.519Z,91.83
2019-04-30T05:17:21.019Z,91.58
2019-04-30T05:18:22.806Z,91.49
2019-04-30T05:19:21.080Z,91.51
2019-04-30T05:20:22.841Z,91.78
2019-04-30T05:21:23.336Z,92.03
2019-04-30T05:22:23.936Z,91.46
2019-04-30T05:23:24.668Z,91.37
2019-04-30T05:24:25.575Z,91.36
2019-04-30T05:25:25.990Z,91.52
2019-04-30T05:26:28.579Z,90.88
2019-04-30T05:27:25.922Z,90.75
2019-04-30T05:28:27.379Z,90.57
2019-04-30T05:29:28.972Z,90.75
2019-04-30T05:30:29.369Z,90.66
2019-04-30T05:31:28.979Z,90.37
2019-04-30T05:32:29.337Z,90.30
2019-04-30T05:33:29.032Z,90.22
2019-04-30T05:34:30.580Z,90.51
2019-04-30T05:35:31.384Z,90.48
2019-04-30T05:36:31.911Z,90.76
2019-04-30T05:37:32.583Z,90.31
2019-04-30T05:38:32.956Z,90.32
2019-04-30T05:39:33.448Z,90.30
2019-04-30T05:40:34.186Z,89.28
2019-04-30T05:41:33.621Z,90.06
2019-04-30T05:42:35.085Z,90.16
2019-04-30T05:43:35.907Z,88.51
2019-04-30T05:44:36.448Z,88.95
2019-04-30T05:45:38.896Z,88.87
2019-04-30T05:46:36.384Z,88.97
2019-04-30T05:47:38.890Z,88.64
2019-04-30T05:48:37.235Z,88.61
2019-04-30T05:49:38.953Z,88.57
2019-04-30T05:50:39.153Z,87.52
2019-04-30T05:51:38.877Z,87.91
2019-04-30T05:52:39.725Z,88.18
2019-04-30T05:53:39.531Z,87.16
2019-04-30T05:54:39.753Z,87.46
2019-04-30T05:55:41.687Z,86.46
2019-04-30T05:55:50.233Z,86.35
2019-04-30T05:56:51.566Z,86.31
2019-04-30T05:57:56.236Z,86.33
2019-04-30T05:58:51.904Z,86.54
2019-04-30T05:59:53.308Z,85.21
2019-04-30T06:00:53.683Z,84.97
2019-04-30T06:01:53.975Z,85.28
2019-04-30T06:02:54.375Z,84.90
2019-04-30T06:03:54.955Z,85.32
2019-04-30T06:04:55.346Z,84.53
2019-04-30T06:05:56.114Z,83.36
2019-04-30T06:06:58.629Z,83.31
2019-04-30T06:07:56.078Z,83.09
2019-04-30T06:09:06.166Z,82.83
2019-04-30T06:09:59.586Z,81.67
2019-04-30T06:10:59.752Z,81.13
2019-04-30T06:11:59.121Z,81.04
2019-04-30T06:12:59.459Z,81.17
2019-04-30T06:13:59.701Z,81.32
2019-04-30T06:15:01.170Z,81.48
2019-04-30T06:16:01.726Z,81.15
2019-04-30T06:17:02.196Z,81.94
2019-04-30T06:18:10.843Z,81.66
2019-04-30T06:19:02.552Z,81.74
2019-04-30T06:20:15.554Z,81.31
2019-04-30T06:21:03.663Z,79.83
2019-04-30T06:22:08.065Z,79.11
2019-04-30T06:23:04.147Z,78.20
2019-04-30T06:24:05.701Z,78.43
2019-04-30T06:25:06.301Z,77.71
2019-04-30T06:26:09.588Z,75.54
2019-04-30T06:27:06.241Z,74.78
2019-04-30T06:28:09.594Z,73.69
2019-04-30T06:29:09.146Z,70.76
2019-04-30T06:30:09.712Z,70.28
2019-04-30T06:31:09.104Z,70.74
2019-04-30T06:32:09.325Z,70.69
2019-04-30T06:33:11.746Z,69.63
2019-04-30T06:34:10.223Z,69.51
2019-04-30T06:35:11.795Z,69.85
2019-04-30T06:36:12.142Z,69.43
2019-04-30T06:37:12.598Z,68.84
2019-04-30T06:38:13.319Z,68.12
2019-04-30T06:39:13.823Z,67.60
2019-04-30T06:40:14.237Z,66.91
2019-04-30T06:41:14.815Z,66.92
2019-04-30T06:42:15.594Z,65.59
2019-04-30T06:43:15.932Z,65.79
2019-04-30T06:44:16.357Z,65.42
2019-04-30T06:45:18.993Z,65.23
2019-04-30T06:46:18.564Z,63.12
2019-04-30T06:47:20.011Z,61.26
2019-04-30T06:48:19.759Z,59.49
2019-04-30T06:49:19.489Z,58.73
2019-04-30T06:50:19.423Z,57.11
2019-04-30T06:51:19.399Z,56.58
2019-04-30T06:52:23.546Z,55.64
2019-04-30T06:53:20.601Z,54.73
2019-04-30T06:54:22.044Z,52.42
2019-04-30T06:55:22.535Z,51.98
2019-04-30T06:56:23.057Z,51.91
2019-04-30T06:56:32.103Z,50.84
2019-04-30T06:57:33.751Z,51.04
2019-04-30T06:58:34.309Z,51.07
2019-04-30T06:59:34.922Z,49.62
2019-04-30T07:00:35.641Z,49.14
2019-04-30T07:01:34.846Z,47.80
2019-04-30T07:02:36.344Z,47.71
2019-04-30T07:03:36.730Z,48.21
2019-04-30T07:04:37.245Z,48.10
2019-04-30T07:05:38.927Z,47.29
2019-04-30T07:06:43.935Z,46.06
2019-04-30T07:07:41.525Z,46.33
2019-04-30T07:08:42.469Z,46.11
2019-04-30T07:09:51.461Z,45.33
2019-04-30T07:10:41.408Z,47.70
2019-04-30T07:11:40.063Z,47.69
2019-04-30T07:12:42.134Z,47.75
2019-04-30T07:13:41.630Z,46.64
2019-04-30T07:14:42.088Z,46.08
2019-04-30T07:15:42.745Z,46.73
2019-04-30T07:16:43.186Z,46.15
2019-04-30T07:17:43.825Z,46.26
2019-04-30T07:18:44.329Z,47.18
2019-04-30T07:19:55.700Z,46.46
2019-04-30T07:20:44.194Z,47.70
2019-04-30T07:21:45.792Z,48.29
2019-04-30T07:22:52.524Z,48.82
2019-04-30T07:23:48.498Z,49.53
2019-04-30T07:24:46.996Z,49.57
2019-04-30T07:25:51.379Z,51.15
2019-04-30T07:26:49.011Z,50.60
2019-04-30T07:27:50.550Z,50.40
2019-04-30T07:28:54.237Z,50.80
2019-04-30T07:29:49.675Z,50.43
2019-04-30T07:31:07.180Z,51.43
2019-04-30T07:31:51.755Z,53.05
2019-04-30T07:32:51.243Z,53.54
2019-04-30T07:33:53.870Z,54.27
2019-04-30T07:34:52.136Z,55.34
2019-04-30T07:35:53.478Z,55.11
2019-04-30T07:37:10.919Z,55.16
2019-04-30T07:37:54.683Z,55.92
2019-04-30T07:38:56.668Z,56.81
2019-04-30T07:39:54.683Z,56.66
2019-04-30T07:40:55.907Z,57.66
2019-04-30T07:41:56.389Z,57.09
2019-04-30T07:42:58.969Z,59.02
2019-04-30T07:43:56.243Z,58.37
2019-04-30T07:45:00.414Z,57.73
2019-04-30T07:45:59.698Z,57.69
2019-04-30T07:46:59.396Z,57.32
2019-04-30T07:47:59.371Z,57.08
2019-04-30T07:49:00.006Z,55.21
2019-04-30T07:50:00.642Z,54.06
2019-04-30T07:51:00.033Z,53.76
2019-04-30T07:52:02.455Z,54.10
2019-04-30T07:53:05.519Z,54.75
2019-04-30T07:54:01.397Z,53.68
2019-04-30T07:55:02.792Z,54.55
2019-04-30T07:56:21.146Z,53.08
2019-04-30T07:57:02.879Z,52.32
2019-04-30T07:58:03.200Z,52.46
2019-04-30T07:59:04.647Z,52.41
2019-04-30T08:00:05.328Z,52.62
2019-04-30T08:01:06.266Z,51.93
2019-04-30T08:02:13.639Z,50.19
2019-04-30T08:03:06.896Z,49.20
2019-04-30T08:04:08.688Z,49.49
2019-04-30T08:05:10.340Z,48.94
2019-04-30T08:06:10.101Z,49.18
2019-04-30T08:07:09.778Z,48.74
2019-04-30T08:08:20.822Z,49.45
2019-04-30T08:09:10.281Z,50.21
2019-04-30T08:09:19.636Z,51.20
2019-04-30T08:10:19.077Z,50.92
2019-04-30T08:11:26.079Z,49.36
2019-04-30T08:12:26.103Z,50.79
2019-04-30T08:13:21.844Z,50.27
2019-04-30T08:14:21.200Z,49.89
2019-04-30T08:15:21.366Z,50.47
2019-04-30T08:16:22.854Z,50.95
2019-04-30T08:17:23.261Z,51.79
2019-04-30T08:18:23.693Z,52.43
2019-04-30T08:19:24.066Z,52.23
2019-04-30T08:20:24.639Z,51.14
2019-04-30T08:21:26.401Z,51.03
2019-04-30T08:22:25.929Z,50.40
2019-04-30T08:23:34.997Z,51.06
2019-04-30T08:24:26.328Z,51.50
2019-04-30T08:25:29.097Z,51.56
2019-04-30T08:26:28.716Z,51.50
2019-04-30T08:27:29.640Z,52.00
2019-04-30T08:28:30.400Z,52.31
2019-04-30T08:29:29.526Z,51.88
2019-04-30T08:30:30.125Z,51.71
2019-04-30T08:31:30.416Z,52.84
2019-04-30T08:32:31.805Z,52.90
2019-04-30T08:33:32.337Z,53.36
2019-04-30T08:34:32.875Z,53.41
2019-04-30T08:35:33.422Z,52.59
2019-04-30T08:36:33.884Z,52.05
2019-04-30T08:37:34.268Z,53.10
2019-04-30T08:38:35.180Z,54.66
2019-04-30T08:39:34.610Z,54.10
2019-04-30T08:40:36.109Z,54.17
2019-04-30T08:41:36.568Z,54.92
2019-04-30T08:42:38.429Z,53.99
2019-04-30T08:43:36.071Z,53.24
2019-04-30T08:44:39.511Z,53.04
2019-04-30T08:45:38.589Z,53.38
2019-04-30T08:46:38.750Z,53.67
2019-04-30T08:47:39.306Z,52.84
2019-04-30T08:48:47.845Z,52.26
2019-04-30T08:49:40.444Z,53.36
2019-04-30T08:50:39.734Z,53.57
2019-04-30T08:51:40.137Z,52.80
2019-04-30T08:52:40.063Z,52.94
2019-04-30T08:53:41.589Z,52.80
2019-04-30T08:54:40.944Z,52.01
2019-04-30T08:55:42.443Z,51.24
2019-04-30T08:56:43.016Z,51.93
2019-04-30T08:57:43.682Z,52.33
2019-04-30T08:58:44.039Z,51.95
2019-04-30T08:59:44.538Z,51.84
2019-04-30T09:00:45.459Z,50.78
2019-04-30T09:01:46.006Z,51.40
2019-04-30T09:02:46.525Z,51.50
2019-04-30T09:03:46.080Z,51.02
2019-04-30T09:04:49.397Z,51.02
2019-04-30T09:05:47.256Z,50.76
2019-04-30T09:06:49.240Z,50.97
2019-04-30T09:07:48.651Z,51.39
2019-04-30T09:08:49.070Z,52.54
2019-04-30T09:09:49.182Z,53.34
2019-04-30T09:10:50.444Z,53.97
2019-04-30T09:11:55.381Z,54.08
2019-04-30T09:12:52.014Z,55.20
2019-04-30T09:13:51.484Z,54.48
2019-04-30T09:14:53.118Z,55.15
2019-04-30T09:15:02.653Z,53.70
2019-04-30T09:16:04.503Z,53.54
2019-04-30T09:17:05.017Z,53.28
2019-04-30T09:18:08.216Z,54.40
2019-04-30T09:19:04.731Z,53.28
2019-04-30T09:20:06.329Z,53.14
2019-04-30T09:21:08.848Z,52.31
2019-04-30T09:22:14.362Z,53.52
2019-04-30T09:23:06.363Z,52.97
2019-04-30T09:24:09.525Z,54.04
2019-04-30T09:25:09.222Z,53.21
2019-04-30T09:26:08.675Z,52.55
2019-04-30T09:27:10.655Z,52.11
2019-04-30T09:28:08.900Z,52.26
2019-04-30T09:29:10.489Z,53.22
2019-04-30T09:30:10.545Z,53.99
2019-04-30T09:31:10.054Z,53.71
2019-04-30T09:32:11.553Z,52.99
2019-04-30T09:33:12.034Z,53.89
2019-04-30T09:34:17.018Z,53.47
2019-04-30T09:35:12.207Z,54.22
2019-04-30T09:36:13.751Z,55.00
2019-04-30T09:37:14.337Z,55.36
2019-04-30T09:38:14.754Z,55.56
2019-04-30T09:39:15.251Z,53.99
2019-04-30T09:40:18.534Z,54.43
2019-04-30T09:41:15.898Z,53.19
2019-04-30T09:42:19.405Z,53.25
2019-04-30T09:43:18.802Z,53.23
2019-04-30T09:44:19.448Z,52.86
2019-04-30T09:45:18.736Z,53.58
2019-04-30T09:46:26.312Z,53.22
2019-04-30T09:47:20.039Z,52.01
2019-04-30T09:48:19.204Z,52.76
2019-04-30T09:49:19.524Z,51.89
2019-04-30T09:50:19.890Z,51.47
2019-04-30T09:51:24.601Z,52.51
2019-04-30T09:52:21.874Z,53.14
2019-04-30T09:53:22.160Z,52.01
2019-04-30T09:54:24.127Z,52.29
2019-04-30T09:55:23.343Z,53.42
2019-04-30T09:56:24.825Z,53.45
2019-04-30T09:57:25.253Z,54.54
2019-04-30T09:58:25.977Z,52.48
2019-04-30T09:59:26.393Z,52.45
2019-04-30T10:00:26.835Z,52.20
2019-04-30T10:01:27.837Z,53.63
2019-04-30T10:02:29.052Z,52.64
2019-04-30T10:03:30.263Z,52.13
2019-04-30T10:04:30.348Z,51.58
2019-04-30T10:05:29.294Z,52.02
2019-04-30T10:06:38.933Z,50.72
2019-04-30T10:07:29.725Z,50.28
2019-04-30T10:08:31.756Z,50.95
2019-04-30T10:09:30.870Z,51.97
2019-04-30T10:10:32.387Z,52.31
2019-04-30T10:11:32.949Z,52.18
2019-04-30T10:12:33.443Z,51.58
2019-04-30T10:13:34.176Z,52.62
2019-04-30T10:14:33.218Z,50.93
2019-04-30T10:15:34.742Z,50.01
2019-04-30T10:16:35.279Z,51.92
2019-04-30T10:17:35.699Z,51.66
2019-04-30T10:18:36.177Z,52.28
2019-04-30T10:19:36.839Z,51.29
2019-04-30T10:20:37.245Z,49.85
2019-04-30T10:20:45.777Z,50.28
2019-04-30T10:21:48.984Z,50.20
2019-04-30T10:22:46.437Z,50.11
2019-04-30T10:23:49.821Z,50.53
2019-04-30T10:24:49.441Z,49.08
2019-04-30T10:25:47.973Z,49.24
2019-04-30T10:26:49.372Z,49.32
2019-04-30T10:27:49.936Z,51.44
2019-04-30T10:28:49.161Z,50.35
2019-04-30T10:29:50.670Z,52.70
2019-04-30T10:30:51.146Z,50.10
2019-04-30T10:31:51.516Z,49.46
2019-04-30T10:32:52.468Z,49.60
2019-04-30T10:33:52.839Z,51.16
2019-04-30T10:34:53.340Z,49.99
2019-04-30T10:35:54.253Z,50.14
2019-04-30T10:36:53.781Z,49.42
2019-04-30T10:37:55.205Z,50.61
2019-04-30T10:38:55.598Z,50.87
2019-04-30T10:39:56.486Z,49.94
2019-04-30T10:40:58.727Z,49.79
2019-04-30T10:41:56.489Z,48.91
2019-04-30T10:42:58.666Z,49.41
2019-04-30T10:43:59.122Z,52.00
2019-04-30T10:45:00.036Z,49.32
2019-04-30T10:45:58.876Z,48.26
2019-04-30T10:47:00.563Z,48.94
2019-04-30T10:48:01.030Z,49.06
2019-04-30T10:49:01.552Z,49.52
2019-04-30T10:50:01.897Z,47.86
2019-04-30T10:51:02.898Z,47.38
2019-04-30T10:52:02.491Z,48.40
2019-04-30T10:53:03.141Z,49.76
2019-04-30T10:54:03.677Z,49.61
2019-04-30T10:55:04.655Z,49.84
2019-04-30T10:56:03.756Z,49.65
2019-04-30T10:57:05.315Z,48.46
2019-04-30T10:58:05.895Z,47.07
2019-04-30T10:59:06.289Z,48.87
2019-04-30T11:00:08.327Z,47.06
2019-04-30T11:01:06.548Z,46.41
2019-04-30T11:02:09.088Z,47.40
2019-04-30T11:03:17.298Z,46.94
2019-04-30T11:04:07.938Z,45.92
2019-04-30T11:05:08.423Z,47.62
2019-04-30T11:06:09.455Z,48.08
2019-04-30T11:07:10.189Z,49.12
2019-04-30T11:08:11.003Z,48.94
2019-04-30T11:09:11.011Z,48.86
2019-04-30T11:10:11.504Z,49.77
2019-04-30T11:11:12.232Z,48.53
2019-04-30T11:12:12.734Z,49.62
2019-04-30T11:13:13.025Z,50.10
2019-04-30T11:14:12.136Z,49.88
2019-04-30T11:15:13.753Z,48.62
2019-04-30T11:15:22.334Z,48.51
2019-04-30T11:16:23.335Z,48.53
2019-04-30T11:17:24.206Z,48.89
2019-04-30T11:18:23.745Z,48.99
2019-04-30T11:19:24.154Z,48.92
2019-04-30T11:20:24.775Z,48.07
2019-04-30T11:21:25.315Z,48.26
2019-04-30T11:22:26.394Z,48.33
2019-04-30T11:23:26.852Z,47.86
2019-04-30T11:24:36.571Z,49.56
2019-04-30T11:25:30.742Z,50.43
2019-04-30T11:26:31.125Z,50.27
2019-04-30T11:27:30.642Z,50.09
2019-04-30T11:28:30.099Z,48.98
2019-04-30T11:29:31.000Z,48.95
2019-04-30T11:30:31.399Z,50.06
2019-04-30T11:31:32.157Z,48.70
2019-04-30T11:32:32.657Z,48.98
2019-04-30T11:33:33.554Z,47.78
2019-04-30T11:34:33.817Z,47.88
2019-04-30T11:35:35.270Z,47.68
2019-04-30T11:36:35.682Z,47.89
2019-04-30T11:37:36.159Z,48.61
2019-04-30T11:38:38.806Z,49.92
2019-04-30T11:39:36.415Z,48.34
2019-04-30T11:40:39.918Z,48.08
2019-04-30T11:41:39.148Z,48.11
2019-04-30T11:42:37.995Z,48.17
2019-04-30T11:43:39.559Z,47.87
2019-04-30T11:44:40.369Z,47.38
2019-04-30T11:45:39.618Z,46.50
2019-04-30T11:46:41.166Z,46.19
2019-04-30T11:47:53.077Z,46.29
2019-04-30T11:48:41.294Z,47.24
2019-04-30T11:49:42.937Z,45.70
2019-04-30T11:50:43.810Z,46.56
2019-04-30T11:51:44.694Z,45.85
2019-04-30T11:52:45.273Z,46.97
2019-04-30T11:53:45.856Z,47.77
2019-04-30T11:54:51.378Z,48.24
2019-04-30T11:55:45.949Z,48.09
2019-04-30T11:56:50.249Z,47.95
2019-04-30T11:57:49.391Z,47.45
2019-04-30T11:58:48.922Z,47.17
2019-04-30T11:59:47.894Z,47.45
2019-04-30T12:00:49.610Z,47.72
2019-04-30T12:01:49.178Z,47.73
2019-04-30T12:02:53.010Z,48.43
2019-04-30T12:03:50.446Z,48.41
2019-04-30T12:04:52.004Z,46.32
2019-04-30T12:05:52.635Z,46.28
2019-04-30T12:06:53.227Z,47.20
2019-04-30T12:07:53.816Z,46.77
2019-04-30T12:08:54.207Z,47.67
2019-04-30T12:09:54.724Z,46.45
2019-04-30T12:10:55.426Z,46.50
2019-04-30T12:11:55.997Z,45.43
2019-04-30T12:12:58.584Z,44.75
2019-04-30T12:13:56.061Z,45.21
2019-04-30T12:14:59.343Z,45.57
2019-04-30T12:15:58.915Z,45.50
2019-04-30T12:16:57.625Z,47.13
2019-04-30T12:17:58.097Z,46.51
2019-04-30T12:19:00.671Z,43.69
2019-04-30T12:19:59.415Z,44.63
2019-04-30T12:21:00.881Z,44.06
2019-04-30T12:22:01.622Z,43.38
2019-04-30T12:23:01.632Z,44.47
2019-04-30T12:24:02.621Z,44.73
2019-04-30T12:24:11.167Z,44.68
2019-04-30T12:25:12.538Z,44.78
2019-04-30T12:26:12.957Z,45.58
2019-04-30T12:27:13.457Z,44.74
2019-04-30T12:28:14.144Z,45.65
2019-04-30T12:29:14.642Z,45.16
2019-04-30T12:30:15.400Z,46.04
2019-04-30T12:31:16.173Z,45.44
2019-04-30T12:32:16.704Z,44.52
2019-04-30T12:33:19.195Z,45.62
2019-04-30T12:34:16.802Z,45.81
2019-04-30T12:35:18.531Z,45.91
2019-04-30T12:36:19.508Z,45.86
2019-04-30T12:37:19.117Z,46.04
2019-04-30T12:38:19.466Z,45.93
2019-04-30T12:39:20.898Z,45.01
2019-04-30T12:40:28.987Z,45.10
2019-04-30T12:41:20.997Z,44.36
2019-04-30T12:42:22.458Z,43.37
2019-04-30T12:43:23.186Z,43.66
2019-04-30T12:44:23.743Z,44.39
2019-04-30T12:45:24.576Z,43.16
2019-04-30T12:46:25.035Z,43.53
2019-04-30T12:47:26.651Z,44.39
2019-04-30T12:48:26.154Z,44.59
2019-04-30T12:49:28.766Z,44.47